sensor_id;sensor_type;location;lat;lon;timestamp;pressure;altitude;pressure_sealevel;temperature;humidity
62025;BME280;47978;49.118;12.146;2024-03-06T00:00:36;97344.53;;;6.20;100.00
62025;BME280;47978;49.118;12.146;2024-03-06T00:04:38;97354.59;;;5.64;100.00
62025;BME280;47978;49.118;12.146;2024-03-06T00:08:40;97349.41;;;5.58;100.00
62025;BME280;47978;49.118;12.146;2024-03-06T00:12:41;97353.22;;;5.67;100.00
62025;BME280;47978;49.118;12.146;2024-03-06T00:16:44;97355.84;;;6.13;100.00
62025;BME280;47978;49.118;12.146;2024-03-06T00:20:46;97355.28;;;6.06;100.00
62025;BME280;47978;49.118;12.146;2024-03-06T00:24:47;97361.81;;;6.25;100.00
62025;BME280;47978;49.118;12.146;2024-03-06T00:28:49;97362.25;;;6.48;100.00
62025;BME280;47978;49.118;12.146;2024-03-06T00:32:52;97370.34;;;6.29;100.00
62025;BME280;47978;49.118;12.146;2024-03-06T00:36:53;97369.38;;;5.79;100.00
62025;BME280;47978;49.118;12.146;2024-03-06T00:40:55;97375.09;;;5.88;100.00
62025;BME280;47978;49.118;12.146;2024-03-06T00:44:56;97373.44;;;5.97;100.00
62025;BME280;47978;49.118;12.146;2024-03-06T00:48:59;97377.91;;;5.62;100.00
62025;BME280;47978;49.118;12.146;2024-03-06T00:53:01;97386.16;;;5.41;100.00
62025;BME280;47978;49.118;12.146;2024-03-06T00:57:03;97378.75;;;5.22;100.00
62025;BME280;47978;49.118;12.146;2024-03-06T01:01:04;97389.72;;;5.32;100.00
62025;BME280;47978;49.118;12.146;2024-03-06T01:05:08;97379.56;;;5.43;100.00
62025;BME280;47978;49.118;12.146;2024-03-06T01:09:09;97378.75;;;5.37;100.00
62025;BME280;47978;49.118;12.146;2024-03-06T01:13:11;97378.50;;;5.13;100.00
62025;BME280;47978;49.118;12.146;2024-03-06T01:17:12;97369.38;;;5.69;100.00
62025;BME280;47978;49.118;12.146;2024-03-06T01:21:16;97366.06;;;5.82;100.00
62025;BME280;47978;49.118;12.146;2024-03-06T01:25:17;97365.78;;;5.94;100.00
62025;BME280;47978;49.118;12.146;2024-03-06T01:29:19;97361.16;;;5.69;100.00
62025;BME280;47978;49.118;12.146;2024-03-06T01:33:20;97362.75;;;5.80;100.00
62025;BME280;47978;49.118;12.146;2024-03-06T01:37:23;97366.63;;;5.84;100.00
62025;BME280;47978;49.118;12.146;2024-03-06T01:41:25;97372.66;;;5.71;100.00
62025;BME280;47978;49.118;12.146;2024-03-06T01:45:26;97377.59;;;5.89;100.00
62025;BME280;47978;49.118;12.146;2024-03-06T01:49:28;97375.41;;;5.76;100.00
62025;BME280;47978;49.118;12.146;2024-03-06T01:53:42;97380.66;;;5.31;100.00
62025;BME280;47978;49.118;12.146;2024-03-06T01:57:44;97379.31;;;5.44;100.00
62025;BME280;47978;49.118;12.146;2024-03-06T02:01:46;97377.94;;;5.36;100.00
62025;BME280;47978;49.118;12.146;2024-03-06T02:05:48;97378.19;;;5.55;100.00
62025;BME280;47978;49.118;12.146;2024-03-06T02:09:52;97373.25;;;5.42;100.00
62025;BME280;47978;49.118;12.146;2024-03-06T02:13:53;97369.66;;;5.62;100.00
62025;BME280;47978;49.118;12.146;2024-03-06T02:17:55;97355.66;;;5.74;100.00
62025;BME280;47978;49.118;12.146;2024-03-06T02:21:58;97360.63;;;5.56;100.00
62025;BME280;47978;49.118;12.146;2024-03-06T02:26:00;97362.81;;;5.70;100.00
62025;BME280;47978;49.118;12.146;2024-03-06T02:30:01;97359.50;;;5.78;100.00
62025;BME280;47978;49.118;12.146;2024-03-06T02:34:03;97361.16;;;5.69;100.00
62025;BME280;47978;49.118;12.146;2024-03-06T02:38:06;97359.47;;;5.83;100.00
62025;BME280;47978;49.118;12.146;2024-03-06T02:42:08;97349.56;;;5.92;100.00
62025;BME280;47978;49.118;12.146;2024-03-06T02:46:10;97353.41;;;5.91;100.00
62025;BME280;47978;49.118;12.146;2024-03-06T02:50:11;97351.78;;;5.95;100.00
62025;BME280;47978;49.118;12.146;2024-03-06T02:54:15;97357.03;;;5.76;100.00
62025;BME280;47978;49.118;12.146;2024-03-06T02:58:16;97353.69;;;5.95;100.00
62025;BME280;47978;49.118;12.146;2024-03-06T03:02:18;97349.56;;;5.92;100.00
62025;BME280;47978;49.118;12.146;2024-03-06T03:06:19;97345.16;;;5.91;100.00
62025;BME280;47978;49.118;12.146;2024-03-06T03:10:22;97353.97;;;5.88;100.00
62025;BME280;47978;49.118;12.146;2024-03-06T03:14:24;97348.78;;;5.86;100.00
62025;BME280;47978;49.118;12.146;2024-03-06T03:18:25;97347.94;;;5.86;100.00
62025;BME280;47978;49.118;12.146;2024-03-06T03:22:27;97352.41;;;5.56;100.00
62025;BME280;47978;49.118;12.146;2024-03-06T03:26:30;97351.09;;;5.18;100.00
62025;BME280;47978;49.118;12.146;2024-03-06T03:30:31;97360.41;;;4.96;100.00
62025;BME280;47978;49.118;12.146;2024-03-06T03:34:33;97357.94;;;5.15;100.00
62025;BME280;47978;49.118;12.146;2024-03-06T03:38:35;97355.16;;;4.80;100.00
62025;BME280;47978;49.118;12.146;2024-03-06T03:42:39;97358.50;;;5.12;100.00
62025;BME280;47978;49.118;12.146;2024-03-06T03:46:41;97360.94;;;4.99;100.00
62025;BME280;47978;49.118;12.146;2024-03-06T03:50:43;97368.88;;;5.05;100.00
62025;BME280;47978;49.118;12.146;2024-03-06T03:54:45;97379.03;;;5.05;100.00
62025;BME280;47978;49.118;12.146;2024-03-06T03:58:47;97363.13;;;5.17;100.00
62025;BME280;47978;49.118;12.146;2024-03-06T04:02:49;97370.53;;;5.11;100.00
62025;BME280;47978;49.118;12.146;2024-03-06T04:06:51;97374.94;;;5.12;100.00
62025;BME280;47978;49.118;12.146;2024-03-06T04:10:52;97381.69;;;4.54;100.00
62025;BME280;47978;49.118;12.146;2024-03-06T04:14:55;97381.41;;;4.45;100.00
62025;BME280;47978;49.118;12.146;2024-03-06T04:18:57;97377.59;;;4.66;100.00
62025;BME280;47978;49.118;12.146;2024-03-06T04:22:58;97377.06;;;4.74;100.00
62025;BME280;47978;49.118;12.146;2024-03-06T04:27:00;97377.25;;;4.32;100.00
62025;BME280;47978;49.118;12.146;2024-03-06T04:31:03;97387.13;;;4.43;100.00
62025;BME280;47978;49.118;12.146;2024-03-06T04:35:05;97386.59;;;4.41;100.00
62025;BME280;47978;49.118;12.146;2024-03-06T04:39:07;97389.38;;;4.72;100.00
62025;BME280;47978;49.118;12.146;2024-03-06T04:43:08;97392.91;;;4.47;100.00
62025;BME280;47978;49.118;12.146;2024-03-06T04:47:11;97399.75;;;4.49;100.00
62025;BME280;47978;49.118;12.146;2024-03-06T04:51:13;97403.34;;;4.60;100.00
62025;BME280;47978;49.118;12.146;2024-03-06T04:55:15;97407.34;;;4.27;100.00
62025;BME280;47978;49.118;12.146;2024-03-06T04:59:16;97414.00;;;4.57;100.00
62025;BME280;47978;49.118;12.146;2024-03-06T05:03:19;97408.56;;;4.62;100.00
62025;BME280;47978;49.118;12.146;2024-03-06T05:07:38;97422.50;;;4.50;100.00
62025;BME280;47978;49.118;12.146;2024-03-06T05:11:57;97423.91;;;4.73;100.00
62025;BME280;47978;49.118;12.146;2024-03-06T05:16:16;97422.31;;;4.97;100.00
62025;BME280;47978;49.118;12.146;2024-03-06T05:20:36;97428.09;;;5.01;100.00
62025;BME280;47978;49.118;12.146;2024-03-06T05:24:55;97428.91;;;5.07;100.00
62025;BME280;47978;49.118;12.146;2024-03-06T05:29:14;97432.44;;;4.97;100.00
62025;BME280;47978;49.118;12.146;2024-03-06T05:33:33;97438.25;;;5.16;100.00
62025;BME280;47978;49.118;12.146;2024-03-06T05:37:54;97446.19;;;5.12;100.00
62025;BME280;47978;49.118;12.146;2024-03-06T05:42:13;97444.53;;;5.11;100.00
62025;BME280;47978;49.118;12.146;2024-03-06T05:46:32;97447.00;;;5.13;100.00
62025;BME280;47978;49.118;12.146;2024-03-06T05:50:51;97457.69;;;5.19;100.00
62025;BME280;47978;49.118;12.146;2024-03-06T05:55:11;97455.22;;;5.69;100.00
62025;BME280;47978;49.118;12.146;2024-03-06T05:59:31;97456.06;;;5.70;100.00
62025;BME280;47978;49.118;12.146;2024-03-06T06:03:32;97462.09;;;5.72;100.00
62025;BME280;47978;49.118;12.146;2024-03-06T06:07:34;97469.25;;;5.78;100.00
62025;BME280;47978;49.118;12.146;2024-03-06T06:11:36;97474.44;;;5.84;100.00
62025;BME280;47978;49.118;12.146;2024-03-06T06:15:38;97484.34;;;5.96;100.00
62025;BME280;47978;49.118;12.146;2024-03-06T06:19:41;97489.53;;;5.87;100.00
62025;BME280;47978;49.118;12.146;2024-03-06T06:23:43;97487.34;;;5.99;100.00
62025;BME280;47978;49.118;12.146;2024-03-06T06:27:46;97487.56;;;6.28;100.00
62025;BME280;47978;49.118;12.146;2024-03-06T06:31:47;97483.13;;;6.48;100.00
62025;BME280;47978;49.118;12.146;2024-03-06T06:35:49;97491.16;;;6.29;100.00
62025;BME280;47978;49.118;12.146;2024-03-06T06:39:50;97485.25;;;6.66;100.00
62025;BME280;47978;49.118;12.146;2024-03-06T06:43:53;97493.16;;;6.78;100.00
62025;BME280;47978;49.118;12.146;2024-03-06T06:47:55;97493.16;;;6.83;100.00
62025;BME280;47978;49.118;12.146;2024-03-06T06:51:57;97499.03;;;7.16;100.00
62025;BME280;47978;49.118;12.146;2024-03-06T06:55:58;97495.81;;;6.98;100.00
62025;BME280;47978;49.118;12.146;2024-03-06T07:00:02;97507.09;;;6.97;100.00
62025;BME280;47978;49.118;12.146;2024-03-06T07:04:04;97496.94;;;6.97;100.00
62025;BME280;47978;49.118;12.146;2024-03-06T07:08:06;97508.16;;;7.06;100.00
62025;BME280;47978;49.118;12.146;2024-03-06T07:12:08;97516.44;;;7.01;100.00
62025;BME280;47978;49.118;12.146;2024-03-06T07:16:11;97519.84;;;6.72;100.00
62025;BME280;47978;49.118;12.146;2024-03-06T07:20:12;97517.81;;;6.93;100.00
62025;BME280;47978;49.118;12.146;2024-03-06T07:24:14;97518.28;;;7.16;100.00
62025;BME280;47978;49.118;12.146;2024-03-06T07:28:16;97521.09;;;7.01;100.00
62025;BME280;47978;49.118;12.146;2024-03-06T07:32:18;97527.84;;;7.24;100.00
62025;BME280;47978;49.118;12.146;2024-03-06T07:36:20;97525.16;;;7.58;100.00
62025;BME280;47978;49.118;12.146;2024-03-06T07:40:22;97528.06;;;7.37;100.00
62025;BME280;47978;49.118;12.146;2024-03-06T07:44:23;97535.41;;;7.86;99.38
62025;BME280;47978;49.118;12.146;2024-03-06T07:48:27;97540.50;;;7.69;98.84
62025;BME280;47978;49.118;12.146;2024-03-06T07:52:28;97541.88;;;7.66;98.39
62025;BME280;47978;49.118;12.146;2024-03-06T07:56:30;97543.03;;;7.60;97.94
62025;BME280;47978;49.118;12.146;2024-03-06T08:00:31;97558.47;;;7.51;98.23
62025;BME280;47978;49.118;12.146;2024-03-06T08:04:34;97565.91;;;7.51;98.20
62025;BME280;47978;49.118;12.146;2024-03-06T08:08:36;97554.66;;;7.92;96.96
62025;BME280;47978;49.118;12.146;2024-03-06T08:12:38;97559.84;;;7.93;94.96
62025;BME280;47978;49.118;12.146;2024-03-06T08:16:39;97561.41;;;8.04;95.72
62025;BME280;47978;49.118;12.146;2024-03-06T08:20:42;97565.25;;;8.08;93.98
62025;BME280;47978;49.118;12.146;2024-03-06T08:24:44;97566.31;;;8.13;93.81
62025;BME280;47978;49.118;12.146;2024-03-06T08:28:45;97576.84;;;8.05;93.33
62025;BME280;47978;49.118;12.146;2024-03-06T08:32:47;97577.66;;;8.06;93.08
62025;BME280;47978;49.118;12.146;2024-03-06T08:36:50;97578.81;;;8.00;93.30
62025;BME280;47978;49.118;12.146;2024-03-06T08:40:51;97580.94;;;8.42;92.13
62025;BME280;47978;49.118;12.146;2024-03-06T08:44:53;97577.94;;;8.68;90.24
62025;BME280;47978;49.118;12.146;2024-03-06T08:48:55;97576.84;;;8.93;88.64
62025;BME280;47978;49.118;12.146;2024-03-06T08:52:57;97571.94;;;9.33;86.07
62025;BME280;47978;49.118;12.146;2024-03-06T08:56:59;97579.00;;;9.20;85.49
62025;BME280;47978;49.118;12.146;2024-03-06T09:01:01;97570.19;;;9.18;85.51
62025;BME280;47978;49.118;12.146;2024-03-06T09:05:03;97577.34;;;9.19;86.72
62025;BME280;47978;49.118;12.146;2024-03-06T09:09:06;97576.84;;;9.36;85.51
62025;BME280;47978;49.118;12.146;2024-03-06T09:13:07;97582.38;;;9.36;85.39
62025;BME280;47978;49.118;12.146;2024-03-06T09:17:09;97584.44;;;9.68;82.96
62025;BME280;47978;49.118;12.146;2024-03-06T09:21:10;97581.66;;;9.87;81.91
62025;BME280;47978;49.118;12.146;2024-03-06T09:25:13;97578.91;;;9.87;80.73
62025;BME280;47978;49.118;12.146;2024-03-06T09:29:17;97586.34;;;9.67;81.96
62025;BME280;47978;49.118;12.146;2024-03-06T09:33:19;97576.69;;;10.41;76.82
62025;BME280;47978;49.118;12.146;2024-03-06T09:37:20;97583.06;;;10.55;75.68
62025;BME280;47978;49.118;12.146;2024-03-06T09:41:23;97588.63;;;10.69;73.38
62025;BME280;47978;49.118;12.146;2024-03-06T09:45:25;97583.13;;;10.96;73.99
62025;BME280;47978;49.118;12.146;2024-03-06T09:49:27;97594.94;;;10.42;74.41
62025;BME280;47978;49.118;12.146;2024-03-06T09:53:28;97587.38;;;10.09;75.00
62025;BME280;47978;49.118;12.146;2024-03-06T09:57:31;97588.88;;;10.40;73.73
62025;BME280;47978;49.118;12.146;2024-03-06T10:01:33;97590.72;;;10.44;74.08
62025;BME280;47978;49.118;12.146;2024-03-06T10:05:36;97591.44;;;11.24;70.67
62025;BME280;47978;49.118;12.146;2024-03-06T10:09:39;97581.09;;;11.80;70.47
62025;BME280;47978;49.118;12.146;2024-03-06T10:13:42;97584.13;;;12.06;69.59
62025;BME280;47978;49.118;12.146;2024-03-06T10:17:44;97587.84;;;12.01;66.51
62025;BME280;47978;49.118;12.146;2024-03-06T10:21:48;97589.47;;;12.02;66.32
62025;BME280;47978;49.118;12.146;2024-03-06T10:25:51;97586.50;;;11.35;65.82
62025;BME280;47978;49.118;12.146;2024-03-06T10:30:02;97593.16;;;11.47;66.68
62025;BME280;47978;49.118;12.146;2024-03-06T10:34:06;97594.16;;;11.65;66.63
62025;BME280;47978;49.118;12.146;2024-03-06T10:38:08;97608.41;;;10.90;69.86
62025;BME280;47978;49.118;12.146;2024-03-06T10:42:12;97602.66;;;10.72;71.70
62025;BME280;47978;49.118;12.146;2024-03-06T10:46:19;97608.22;;;10.86;71.56
62025;BME280;47978;49.118;12.146;2024-03-06T10:50:21;97608.31;;;10.67;71.34
62025;BME280;47978;49.118;12.146;2024-03-06T10:54:26;97605.75;;;10.19;71.97
62025;BME280;47978;49.118;12.146;2024-03-06T10:58:29;97619.34;;;10.34;72.15
62025;BME280;47978;49.118;12.146;2024-03-06T11:02:33;97620.38;;;10.39;71.37
62025;BME280;47978;49.118;12.146;2024-03-06T11:06:35;97621.47;;;10.56;69.90
62025;BME280;47978;49.118;12.146;2024-03-06T11:10:38;97622.78;;;10.92;69.19
62025;BME280;47978;49.118;12.146;2024-03-06T11:14:40;97626.88;;;10.48;71.91
62025;BME280;47978;49.118;12.146;2024-03-06T11:18:44;97624.81;;;10.40;72.34
62025;BME280;47978;49.118;12.146;2024-03-06T11:23:07;97632.03;;;10.35;73.70
62025;BME280;47978;49.118;12.146;2024-03-06T11:27:09;97621.69;;;10.60;71.83
62025;BME280;47978;49.118;12.146;2024-03-06T11:31:11;97616.97;;;11.07;70.43
62025;BME280;47978;49.118;12.146;2024-03-06T11:35:17;97618.19;;;10.54;71.40
62025;BME280;47978;49.118;12.146;2024-03-06T11:39:19;97617.16;;;11.38;68.45
62025;BME280;47978;49.118;12.146;2024-03-06T11:43:24;97621.78;;;11.43;65.54
62025;BME280;47978;49.118;12.146;2024-03-06T11:47:25;97622.97;;;10.95;66.15
62025;BME280;47978;49.118;12.146;2024-03-06T11:51:29;97618.91;;;11.07;66.22
62025;BME280;47978;49.118;12.146;2024-03-06T11:55:30;97623.81;;;11.10;65.55
62025;BME280;47978;49.118;12.146;2024-03-06T11:59:33;97618.88;;;10.93;65.36
62025;BME280;47978;49.118;12.146;2024-03-06T12:03:35;97620.22;;;10.95;65.74
62025;BME280;47978;49.118;12.146;2024-03-06T12:07:46;97620.63;;;10.89;64.62
62025;BME280;47978;49.118;12.146;2024-03-06T12:11:47;97616.47;;;11.19;63.35
62025;BME280;47978;49.118;12.146;2024-03-06T12:15:49;97610.16;;;10.86;65.23
62025;BME280;47978;49.118;12.146;2024-03-06T12:19:54;97617.81;;;10.75;65.84
62025;BME280;47978;49.118;12.146;2024-03-06T12:24:04;97623.09;;;11.18;65.10
62025;BME280;47978;49.118;12.146;2024-03-06T12:28:07;97623.00;;;11.23;63.78
62025;BME280;47978;49.118;12.146;2024-03-06T12:32:16;97622.47;;;11.76;63.73
62025;BME280;47978;49.118;12.146;2024-03-06T12:36:25;97614.50;;;11.19;64.07
62025;BME280;47978;49.118;12.146;2024-03-06T12:40:28;97612.38;;;10.70;64.25
62025;BME280;47978;49.118;12.146;2024-03-06T12:44:29;97618.53;;;11.27;63.47
62025;BME280;47978;49.118;12.146;2024-03-06T12:48:31;97614.91;;;10.99;64.83
62025;BME280;47978;49.118;12.146;2024-03-06T12:52:33;97614.19;;;11.07;65.41
62025;BME280;47978;49.118;12.146;2024-03-06T12:56:35;97617.16;;;11.11;64.73
62025;BME280;47978;49.118;12.146;2024-03-06T13:00:37;97619.53;;;11.31;64.73
62025;BME280;47978;49.118;12.146;2024-03-06T13:04:39;97614.38;;;10.83;64.74
62025;BME280;47978;49.118;12.146;2024-03-06T13:08:40;97614.09;;;11.26;64.17
62025;BME280;47978;49.118;12.146;2024-03-06T13:12:43;97623.72;;;11.15;62.42
62025;BME280;47978;49.118;12.146;2024-03-06T13:16:45;97622.72;;;10.64;65.43
62025;BME280;47978;49.118;12.146;2024-03-06T13:20:47;97619.72;;;10.93;64.85
62025;BME280;47978;49.118;12.146;2024-03-06T13:24:48;97619.38;;;10.81;64.94
62025;BME280;47978;49.118;12.146;2024-03-06T13:28:53;97618.19;;;10.54;64.78
62025;BME280;47978;49.118;12.146;2024-03-06T13:32:54;97626.50;;;10.35;65.61
62025;BME280;47978;49.118;12.146;2024-03-06T13:36:56;97624.19;;;10.75;65.20
62025;BME280;47978;49.118;12.146;2024-03-06T13:40:57;97615.56;;;10.63;64.78
62025;BME280;47978;49.118;12.146;2024-03-06T13:45:01;97633.63;;;10.88;63.73
62025;BME280;47978;49.118;12.146;2024-03-06T13:49:02;97628.53;;;11.09;63.41
62025;BME280;47978;49.118;12.146;2024-03-06T13:53:04;97641.75;;;10.33;63.49
62025;BME280;47978;49.118;12.146;2024-03-06T13:57:06;97629.75;;;10.89;63.14
62025;BME280;47978;49.118;12.146;2024-03-06T14:01:08;97629.16;;;11.20;62.40
62025;BME280;47978;49.118;12.146;2024-03-06T14:05:10;97638.38;;;11.29;61.76
62025;BME280;47978;49.118;12.146;2024-03-06T14:09:12;97634.94;;;10.77;62.63
62025;BME280;47978;49.118;12.146;2024-03-06T14:13:13;97643.13;;;10.68;63.09
62025;BME280;47978;49.118;12.146;2024-03-06T14:17:16;97640.72;;;10.48;64.38
62025;BME280;47978;49.118;12.146;2024-03-06T14:21:18;97645.56;;;9.99;65.58
62025;BME280;47978;49.118;12.146;2024-03-06T14:25:19;97644.13;;;10.21;65.50
62025;BME280;47978;49.118;12.146;2024-03-06T14:29:21;97639.91;;;10.61;63.88
62025;BME280;47978;49.118;12.146;2024-03-06T14:33:24;97643.41;;;10.67;64.24
62025;BME280;47978;49.118;12.146;2024-03-06T14:37:26;97643.84;;;10.74;62.02
62025;BME280;47978;49.118;12.146;2024-03-06T14:41:27;97642.06;;;11.11;61.51
62025;BME280;47978;49.118;12.146;2024-03-06T14:45:29;97640.19;;;10.46;63.10
62025;BME280;47978;49.118;12.146;2024-03-06T14:49:32;97646.78;;;10.31;63.25
62025;BME280;47978;49.118;12.146;2024-03-06T14:53:34;97653.25;;;10.59;62.63
62025;BME280;47978;49.118;12.146;2024-03-06T14:57:36;97655.41;;;10.62;64.01
62025;BME280;47978;49.118;12.146;2024-03-06T15:01:37;97654.41;;;10.39;64.55
62025;BME280;47978;49.118;12.146;2024-03-06T15:05:41;97659.69;;;10.35;64.59
62025;BME280;47978;49.118;12.146;2024-03-06T15:09:42;97664.81;;;10.23;67.04
62025;BME280;47978;49.118;12.146;2024-03-06T15:13:44;97669.63;;;10.37;66.52
62025;BME280;47978;49.118;12.146;2024-03-06T15:17:45;97663.66;;;10.48;66.03
62025;BME280;47978;49.118;12.146;2024-03-06T15:21:48;97660.41;;;9.84;65.62
62025;BME280;47978;49.118;12.146;2024-03-06T15:25:50;97668.19;;;10.20;65.58
62025;BME280;47978;49.118;12.146;2024-03-06T15:29:51;97673.13;;;9.85;66.29
62025;BME280;47978;49.118;12.146;2024-03-06T15:33:53;97673.50;;;9.55;67.66
62025;BME280;47978;49.118;12.146;2024-03-06T15:37:56;97680.72;;;9.75;66.75
62025;BME280;47978;49.118;12.146;2024-03-06T15:41:58;97682.94;;;9.73;64.64
62025;BME280;47978;49.118;12.146;2024-03-06T15:45:59;97679.25;;;9.58;65.79
62025;BME280;47978;49.118;12.146;2024-03-06T15:50:01;97687.00;;;9.80;64.99
62025;BME280;47978;49.118;12.146;2024-03-06T15:54:04;97679.75;;;9.84;63.71
62025;BME280;47978;49.118;12.146;2024-03-06T15:58:06;97687.25;;;9.79;64.26
62025;BME280;47978;49.118;12.146;2024-03-06T16:02:07;97690.00;;;9.12;65.44
62025;BME280;47978;49.118;12.146;2024-03-06T16:06:09;97692.16;;;9.15;64.64
62025;BME280;47978;49.118;12.146;2024-03-06T16:10:20;97696.88;;;9.14;65.82
62025;BME280;47978;49.118;12.146;2024-03-06T16:14:22;97694.69;;;8.82;66.32
62025;BME280;47978;49.118;12.146;2024-03-06T16:18:24;97704.44;;;9.04;66.03
62025;BME280;47978;49.118;12.146;2024-03-06T16:22:25;97699.19;;;9.02;66.75
62025;BME280;47978;49.118;12.146;2024-03-06T16:26:29;97707.53;;;8.97;67.32
62025;BME280;47978;49.118;12.146;2024-03-06T16:30:30;97701.38;;;9.05;66.44
62025;BME280;47978;49.118;12.146;2024-03-06T16:34:32;97711.91;;;8.69;68.40
62025;BME280;47978;49.118;12.146;2024-03-06T16:38:34;97712.69;;;8.74;68.75
62025;BME280;47978;49.118;12.146;2024-03-06T16:42:37;97712.28;;;8.91;67.13
62025;BME280;47978;49.118;12.146;2024-03-06T16:46:39;97722.16;;;8.63;68.51
62025;BME280;47978;49.118;12.146;2024-03-06T16:50:40;97727.28;;;8.36;70.65
62025;BME280;47978;49.118;12.146;2024-03-06T16:54:42;97725.91;;;8.33;70.48
62025;BME280;47978;49.118;12.146;2024-03-06T16:58:45;97732.97;;;8.05;71.59
62025;BME280;47978;49.118;12.146;2024-03-06T17:02:47;97735.00;;;7.89;71.94
62025;BME280;47978;49.118;12.146;2024-03-06T17:06:49;97731.66;;;7.97;74.39
62025;BME280;47978;49.118;12.146;2024-03-06T17:10:50;97733.19;;;7.64;75.41
62025;BME280;47978;49.118;12.146;2024-03-06T17:14:53;97738.84;;;6.97;79.96
62025;BME280;47978;49.118;12.146;2024-03-06T17:18:55;97737.22;;;6.76;82.52
62025;BME280;47978;49.118;12.146;2024-03-06T17:22:56;97736.09;;;6.51;83.48
62025;BME280;47978;49.118;12.146;2024-03-06T17:26:58;97755.06;;;6.38;84.90
62025;BME280;47978;49.118;12.146;2024-03-06T17:31:01;97756.91;;;6.17;85.27
62025;BME280;47978;49.118;12.146;2024-03-06T17:35:04;97756.41;;;6.30;85.06
62025;BME280;47978;49.118;12.146;2024-03-06T17:39:06;97757.47;;;6.03;86.96
62025;BME280;47978;49.118;12.146;2024-03-06T17:43:07;97763.47;;;6.00;87.44
62025;BME280;47978;49.118;12.146;2024-03-06T17:47:10;97773.41;;;5.54;90.26
62025;BME280;47978;49.118;12.146;2024-03-06T17:51:12;97779.59;;;5.34;90.80
62025;BME280;47978;49.118;12.146;2024-03-06T17:55:14;97782.31;;;5.29;91.44
62025;BME280;47978;49.118;12.146;2024-03-06T17:59:15;97781.41;;;5.13;91.72
62025;BME280;47978;49.118;12.146;2024-03-06T18:03:18;97781.97;;;5.20;91.36
62025;BME280;47978;49.118;12.146;2024-03-06T18:07:19;97784.44;;;4.79;93.51
62025;BME280;47978;49.118;12.146;2024-03-06T18:11:21;97786.59;;;4.45;95.62
62025;BME280;47978;49.118;12.146;2024-03-06T18:15:23;97791.03;;;4.51;94.84
62025;BME280;47978;49.118;12.146;2024-03-06T18:19:26;97788.09;;;4.31;95.81
62025;BME280;47978;49.118;12.146;2024-03-06T18:23:28;97785.81;;;4.49;95.36
62025;BME280;47978;49.118;12.146;2024-03-06T18:27:29;97787.53;;;4.28;96.17
62025;BME280;47978;49.118;12.146;2024-03-06T18:31:31;97785.88;;;4.27;95.65
62025;BME280;47978;49.118;12.146;2024-03-06T18:35:34;97790.84;;;4.31;96.27
62025;BME280;47978;49.118;12.146;2024-03-06T18:39:35;97788.53;;;4.49;95.67
62025;BME280;47978;49.118;12.146;2024-03-06T18:43:37;97797.88;;;4.21;97.33
62025;BME280;47978;49.118;12.146;2024-03-06T18:47:39;97795.22;;;4.32;97.04
62025;BME280;47978;49.118;12.146;2024-03-06T18:51:47;97795.84;;;4.39;96.52
62025;BME280;47978;49.118;12.146;2024-03-06T18:55:49;97789.91;;;4.20;97.77
62025;BME280;47978;49.118;12.146;2024-03-06T18:59:50;97800.13;;;4.29;97.53
62025;BME280;47978;49.118;12.146;2024-03-06T19:03:52;97798.22;;;4.30;97.35
62025;BME280;47978;49.118;12.146;2024-03-06T19:07:57;97805.59;;;4.29;98.49
62025;BME280;47978;49.118;12.146;2024-03-06T19:11:59;97801.47;;;4.27;98.24
62025;BME280;47978;49.118;12.146;2024-03-06T19:16:01;97806.91;;;4.22;98.89
62025;BME280;47978;49.118;12.146;2024-03-06T19:20:03;97805.94;;;4.33;98.40
62025;BME280;47978;49.118;12.146;2024-03-06T19:24:06;97802.59;;;4.31;99.19
62025;BME280;47978;49.118;12.146;2024-03-06T19:28:07;97817.75;;;4.39;98.91
62025;BME280;47978;49.118;12.146;2024-03-06T19:32:09;97813.00;;;4.56;97.63
62025;BME280;47978;49.118;12.146;2024-03-06T19:36:11;97820.75;;;4.69;96.88
62025;BME280;47978;49.118;12.146;2024-03-06T19:40:14;97824.59;;;4.68;97.61
62025;BME280;47978;49.118;12.146;2024-03-06T19:44:15;97827.41;;;4.73;97.88
62025;BME280;47978;49.118;12.146;2024-03-06T19:48:17;97831.34;;;4.88;96.97
62025;BME280;47978;49.118;12.146;2024-03-06T19:52:18;97820.88;;;5.17;95.13
62025;BME280;47978;49.118;12.146;2024-03-06T19:56:21;97823.06;;;5.15;95.33
62025;BME280;47978;49.118;12.146;2024-03-06T20:00:23;97821.59;;;5.02;96.37
62025;BME280;47978;49.118;12.146;2024-03-06T20:04:24;97812.75;;;4.90;97.54
62025;BME280;47978;49.118;12.146;2024-03-06T20:08:26;97819.88;;;4.91;97.94
62025;BME280;47978;49.118;12.146;2024-03-06T20:12:29;97813.38;;;5.02;97.23
62025;BME280;47978;49.118;12.146;2024-03-06T20:16:30;97833.44;;;5.08;97.94
62025;BME280;47978;49.118;12.146;2024-03-06T20:20:32;97831.69;;;5.34;96.42
62025;BME280;47978;49.118;12.146;2024-03-06T20:24:34;97837.28;;;5.12;97.30
62025;BME280;47978;49.118;12.146;2024-03-06T20:28:37;97842.44;;;5.40;96.02
62025;BME280;47978;49.118;12.146;2024-03-06T20:32:38;97844.81;;;5.27;96.50
62025;BME280;47978;49.118;12.146;2024-03-06T20:36:40;97852.91;;;5.44;94.14
62025;BME280;47978;49.118;12.146;2024-03-06T20:40:41;97848.03;;;5.56;94.23
62025;BME280;47978;49.118;12.146;2024-03-06T20:44:45;97846.19;;;5.72;92.71
62025;BME280;47978;49.118;12.146;2024-03-06T20:48:46;97849.59;;;5.89;91.38
62025;BME280;47978;49.118;12.146;2024-03-06T20:52:48;97849.06;;;5.92;89.59
62025;BME280;47978;49.118;12.146;2024-03-06T20:56:49;97843.38;;;6.04;89.75
62025;BME280;47978;49.118;12.146;2024-03-06T21:00:55;97844.44;;;6.03;88.55
62025;BME280;47978;49.118;12.146;2024-03-06T21:04:57;97851.28;;;6.00;88.34
62025;BME280;47978;49.118;12.146;2024-03-06T21:08:58;97849.69;;;6.04;87.61
62025;BME280;47978;49.118;12.146;2024-03-06T21:13:00;97852.44;;;6.15;86.31